sensor_id;sensor_type;location;lat;lon;timestamp;P1;durP1;ratioP1;P2;durP2;ratioP2
4738;SDS011;2383;48.632;10.156;2024-02-14T00:02:30;12.70;;;6.20;;
4738;SDS011;2383;48.632;10.156;2024-02-14T00:06:36;13.33;;;7.13;;
4738;SDS011;2383;48.632;10.156;2024-02-14T00:10:39;15.73;;;8.97;;
4738;SDS011;2383;48.632;10.156;2024-02-14T00:14:41;15.57;;;9.07;;
4738;SDS011;2383;48.632;10.156;2024-02-14T00:18:44;13.63;;;7.33;;
4738;SDS011;2383;48.632;10.156;2024-02-14T00:22:46;15.87;;;7.80;;
4738;SDS011;2383;48.632;10.156;2024-02-14T00:26:48;14.97;;;8.07;;
4738;SDS011;2383;48.632;10.156;2024-02-14T00:30:51;12.17;;;5.70;;
4738;SDS011;2383;48.632;10.156;2024-02-14T00:34:53;7.40;;;4.40;;
4738;SDS011;2383;48.632;10.156;2024-02-14T00:38:55;3.60;;;2.70;;
4738;SDS011;2383;48.632;10.156;2024-02-14T00:42:57;4.07;;;2.67;;
4738;SDS011;2383;48.632;10.156;2024-02-14T00:47:00;4.67;;;2.30;;
4738;SDS011;2383;48.632;10.156;2024-02-14T00:51:03;3.80;;;2.57;;
4738;SDS011;2383;48.632;10.156;2024-02-14T00:55:05;4.07;;;3.17;;
4738;SDS011;2383;48.632;10.156;2024-02-14T00:59:07;6.97;;;4.10;;
4738;SDS011;2383;48.632;10.156;2024-02-14T01:03:10;5.70;;;3.87;;
4738;SDS011;2383;48.632;10.156;2024-02-14T01:07:14;4.03;;;2.67;;
4738;SDS011;2383;48.632;10.156;2024-02-14T01:11:16;6.67;;;3.50;;
4738;SDS011;2383;48.632;10.156;2024-02-14T01:15:18;6.70;;;4.30;;
4738;SDS011;2383;48.632;10.156;2024-02-14T01:19:21;17.13;;;10.57;;
4738;SDS011;2383;48.632;10.156;2024-02-14T01:23:25;12.57;;;7.43;;
4738;SDS011;2383;48.632;10.156;2024-02-14T01:27:28;8.53;;;5.10;;
4738;SDS011;2383;48.632;10.156;2024-02-14T01:31:30;7.37;;;3.17;;
4738;SDS011;2383;48.632;10.156;2024-02-14T01:35:32;3.87;;;2.50;;
4738;SDS011;2383;48.632;10.156;2024-02-14T01:39:34;3.23;;;1.97;;
4738;SDS011;2383;48.632;10.156;2024-02-14T01:43:37;4.00;;;2.37;;
4738;SDS011;2383;48.632;10.156;2024-02-14T01:47:39;3.03;;;2.23;;
4738;SDS011;2383;48.632;10.156;2024-02-14T01:51:42;5.00;;;2.10;;
4738;SDS011;2383;48.632;10.156;2024-02-14T01:55:46;2.63;;;2.10;;
4738;SDS011;2383;48.632;10.156;2024-02-14T01:59:48;3.33;;;2.07;;
4738;SDS011;2383;48.632;10.156;2024-02-14T02:03:53;2.77;;;2.30;;
4738;SDS011;2383;48.632;10.156;2024-02-14T02:07:56;3.60;;;1.70;;
4738;SDS011;2383;48.632;10.156;2024-02-14T02:11:58;5.47;;;2.30;;
4738;SDS011;2383;48.632;10.156;2024-02-14T02:16:02;6.43;;;2.90;;
4738;SDS011;2383;48.632;10.156;2024-02-14T02:20:06;3.27;;;2.20;;
4738;SDS011;2383;48.632;10.156;2024-02-14T02:24:10;4.43;;;2.17;;
4738;SDS011;2383;48.632;10.156;2024-02-14T02:28:12;4.93;;;2.70;;
4738;SDS011;2383;48.632;10.156;2024-02-14T02:32:14;8.93;;;3.40;;
4738;SDS011;2383;48.632;10.156;2024-02-14T02:36:17;4.87;;;3.10;;
4738;SDS011;2383;48.632;10.156;2024-02-14T02:40:19;4.63;;;3.23;;
4738;SDS011;2383;48.632;10.156;2024-02-14T02:44:23;5.57;;;3.70;;
4738;SDS011;2383;48.632;10.156;2024-02-14T02:48:25;6.47;;;3.10;;
4738;SDS011;2383;48.632;10.156;2024-02-14T02:52:27;4.40;;;2.40;;
4738;SDS011;2383;48.632;10.156;2024-02-14T02:56:30;9.30;;;3.73;;
4738;SDS011;2383;48.632;10.156;2024-02-14T03:00:32;5.23;;;3.13;;
4738;SDS011;2383;48.632;10.156;2024-02-14T03:04:34;4.70;;;3.00;;
4738;SDS011;2383;48.632;10.156;2024-02-14T03:08:52;4.83;;;3.10;;
4738;SDS011;2383;48.632;10.156;2024-02-14T03:12:56;5.80;;;3.40;;
4738;SDS011;2383;48.632;10.156;2024-02-14T03:16:59;9.73;;;3.77;;
4738;SDS011;2383;48.632;10.156;2024-02-14T03:21:01;7.80;;;4.53;;
4738;SDS011;2383;48.632;10.156;2024-02-14T03:25:04;10.33;;;4.50;;
4738;SDS011;2383;48.632;10.156;2024-02-14T03:29:06;6.17;;;4.27;;
4738;SDS011;2383;48.632;10.156;2024-02-14T03:33:08;8.80;;;3.93;;
4738;SDS011;2383;48.632;10.156;2024-02-14T03:37:10;6.87;;;3.77;;
4738;SDS011;2383;48.632;10.156;2024-02-14T03:41:12;7.80;;;3.90;;
4738;SDS011;2383;48.632;10.156;2024-02-14T03:45:14;7.10;;;4.10;;
4738;SDS011;2383;48.632;10.156;2024-02-14T03:49:17;8.60;;;4.13;;
4738;SDS011;2383;48.632;10.156;2024-02-14T03:53:19;8.33;;;4.23;;
4738;SDS011;2383;48.632;10.156;2024-02-14T03:57:21;8.33;;;3.80;;
4738;SDS011;2383;48.632;10.156;2024-02-14T04:01:23;7.43;;;3.63;;
4738;SDS011;2383;48.632;10.156;2024-02-14T04:05:25;7.80;;;4.20;;
4738;SDS011;2383;48.632;10.156;2024-02-14T04:09:32;7.37;;;3.77;;
4738;SDS011;2383;48.632;10.156;2024-02-14T04:13:34;8.13;;;3.90;;
4738;SDS011;2383;48.632;10.156;2024-02-14T04:17:36;6.83;;;3.80;;
4738;SDS011;2383;48.632;10.156;2024-02-14T04:21:39;8.53;;;3.53;;
4738;SDS011;2383;48.632;10.156;2024-02-14T04:25:42;4.97;;;3.47;;
4738;SDS011;2383;48.632;10.156;2024-02-14T04:29:47;4.73;;;3.40;;
4738;SDS011;2383;48.632;10.156;2024-02-14T04:33:50;9.57;;;4.00;;
4738;SDS011;2383;48.632;10.156;2024-02-14T04:37:54;9.63;;;4.20;;
4738;SDS011;2383;48.632;10.156;2024-02-14T04:41:56;9.73;;;3.93;;
4738;SDS011;2383;48.632;10.156;2024-02-14T04:46:03;7.30;;;4.60;;
4738;SDS011;2383;48.632;10.156;2024-02-14T04:50:08;6.83;;;4.33;;
4738;SDS011;2383;48.632;10.156;2024-02-14T04:54:10;8.53;;;4.50;;
4738;SDS011;2383;48.632;10.156;2024-02-14T04:58:12;6.93;;;4.03;;
4738;SDS011;2383;48.632;10.156;2024-02-14T05:02:14;8.17;;;4.17;;
4738;SDS011;2383;48.632;10.156;2024-02-14T05:06:17;5.40;;;3.87;;
4738;SDS011;2383;48.632;10.156;2024-02-14T05:10:19;7.70;;;4.30;;
4738;SDS011;2383;48.632;10.156;2024-02-14T05:14:21;7.73;;;4.23;;
4738;SDS011;2383;48.632;10.156;2024-02-14T05:18:23;8.87;;;4.80;;
4738;SDS011;2383;48.632;10.156;2024-02-14T05:22:25;6.87;;;4.57;;
4738;SDS011;2383;48.632;10.156;2024-02-14T05:26:30;8.23;;;4.57;;
4738;SDS011;2383;48.632;10.156;2024-02-14T05:30:33;7.13;;;4.47;;
4738;SDS011;2383;48.632;10.156;2024-02-14T05:34:35;7.70;;;4.80;;
4738;SDS011;2383;48.632;10.156;2024-02-14T05:38:37;8.40;;;5.07;;
4738;SDS011;2383;48.632;10.156;2024-02-14T05:42:39;8.77;;;4.60;;
4738;SDS011;2383;48.632;10.156;2024-02-14T05:46:41;11.57;;;4.53;;
4738;SDS011;2383;48.632;10.156;2024-02-14T05:50:43;10.93;;;4.90;;
4738;SDS011;2383;48.632;10.156;2024-02-14T05:54:45;11.07;;;4.90;;
4738;SDS011;2383;48.632;10.156;2024-02-14T05:58:47;8.40;;;4.67;;
4738;SDS011;2383;48.632;10.156;2024-02-14T06:02:49;11.13;;;5.23;;
4738;SDS011;2383;48.632;10.156;2024-02-14T06:06:51;8.77;;;4.90;;
4738;SDS011;2383;48.632;10.156;2024-02-14T06:10:54;9.07;;;5.33;;
4738;SDS011;2383;48.632;10.156;2024-02-14T06:14:56;8.77;;;4.90;;
4738;SDS011;2383;48.632;10.156;2024-02-14T06:18:58;6.57;;;4.60;;
4738;SDS011;2383;48.632;10.156;2024-02-14T06:23:00;10.13;;;4.53;;
4738;SDS011;2383;48.632;10.156;2024-02-14T06:27:06;8.80;;;5.27;;
4738;SDS011;2383;48.632;10.156;2024-02-14T06:31:09;8.63;;;5.20;;
4738;SDS011;2383;48.632;10.156;2024-02-14T06:35:11;11.03;;;4.80;;
4738;SDS011;2383;48.632;10.156;2024-02-14T06:39:13;6.77;;;5.23;;
4738;SDS011;2383;48.632;10.156;2024-02-14T06:43:15;13.27;;;5.07;;
4738;SDS011;2383;48.632;10.156;2024-02-14T06:47:17;7.33;;;4.53;;
4738;SDS011;2383;48.632;10.156;2024-02-14T06:51:19;8.53;;;5.00;;
4738;SDS011;2383;48.632;10.156;2024-02-14T06:55:21;9.03;;;4.70;;
4738;SDS011;2383;48.632;10.156;2024-02-14T06:59:23;6.50;;;4.87;;
4738;SDS011;2383;48.632;10.156;2024-02-14T07:03:25;12.10;;;6.03;;
4738;SDS011;2383;48.632;10.156;2024-02-14T07:07:28;8.40;;;5.50;;
4738;SDS011;2383;48.632;10.156;2024-02-14T07:11:29;13.30;;;7.07;;
4738;SDS011;2383;48.632;10.156;2024-02-14T07:15:32;16.80;;;8.13;;
4738;SDS011;2383;48.632;10.156;2024-02-14T07:19:34;15.00;;;9.20;;
4738;SDS011;2383;48.632;10.156;2024-02-14T07:23:36;20.60;;;9.57;;
4738;SDS011;2383;48.632;10.156;2024-02-14T07:27:38;15.80;;;9.60;;
4738;SDS011;2383;48.632;10.156;2024-02-14T07:31:41;20.63;;;12.57;;
4738;SDS011;2383;48.632;10.156;2024-02-14T07:35:42;13.80;;;9.00;;
4738;SDS011;2383;48.632;10.156;2024-02-14T07:39:44;14.10;;;9.47;;
4738;SDS011;2383;48.632;10.156;2024-02-14T07:43:47;17.07;;;10.13;;
4738;SDS011;2383;48.632;10.156;2024-02-14T07:47:52;15.53;;;9.53;;
4738;SDS011;2383;48.632;10.156;2024-02-14T07:51:54;21.83;;;8.77;;
4738;SDS011;2383;48.632;10.156;2024-02-14T07:55:56;23.07;;;12.53;;
4738;SDS011;2383;48.632;10.156;2024-02-14T07:59:59;16.50;;;9.80;;
4738;SDS011;2383;48.632;10.156;2024-02-14T08:04:01;20.60;;;11.73;;
4738;SDS011;2383;48.632;10.156;2024-02-14T08:08:03;19.20;;;11.37;;
4738;SDS011;2383;48.632;10.156;2024-02-14T08:12:06;19.30;;;11.00;;
4738;SDS011;2383;48.632;10.156;2024-02-14T08:16:08;13.83;;;6.93;;
4738;SDS011;2383;48.632;10.156;2024-02-14T08:20:10;12.60;;;7.40;;
4738;SDS011;2383;48.632;10.156;2024-02-14T08:24:13;11.63;;;6.27;;
4738;SDS011;2383;48.632;10.156;2024-02-14T08:28:15;9.60;;;6.60;;
4738;SDS011;2383;48.632;10.156;2024-02-14T08:32:19;12.37;;;7.80;;
4738;SDS011;2383;48.632;10.156;2024-02-14T08:36:23;12.40;;;7.40;;
4738;SDS011;2383;48.632;10.156;2024-02-14T08:40:25;10.47;;;7.20;;
4738;SDS011;2383;48.632;10.156;2024-02-14T08:44:27;14.47;;;7.10;;
4738;SDS011;2383;48.632;10.156;2024-02-14T08:48:29;12.10;;;6.20;;
4738;SDS011;2383;48.632;10.156;2024-02-14T08:52:35;9.17;;;6.07;;
4738;SDS011;2383;48.632;10.156;2024-02-14T08:56:39;12.83;;;6.37;;
4738;SDS011;2383;48.632;10.156;2024-02-14T09:00:41;14.40;;;8.03;;
4738;SDS011;2383;48.632;10.156;2024-02-14T09:04:43;8.47;;;5.20;;
4738;SDS011;2383;48.632;10.156;2024-02-14T09:08:45;7.17;;;5.43;;
4738;SDS011;2383;48.632;10.156;2024-02-14T09:12:48;9.90;;;5.00;;
4738;SDS011;2383;48.632;10.156;2024-02-14T09:16:50;8.33;;;5.00;;
4738;SDS011;2383;48.632;10.156;2024-02-14T09:20:52;8.17;;;4.50;;
4738;SDS011;2383;48.632;10.156;2024-02-14T09:24:55;9.10;;;4.37;;
4738;SDS011;2383;48.632;10.156;2024-02-14T09:28:58;11.27;;;5.20;;
4738;SDS011;2383;48.632;10.156;2024-02-14T09:33:00;5.73;;;4.10;;
4738;SDS011;2383;48.632;10.156;2024-02-14T09:37:03;8.33;;;4.73;;
4738;SDS011;2383;48.632;10.156;2024-02-14T09:41:27;12.57;;;6.00;;
4738;SDS011;2383;48.632;10.156;2024-02-14T09:45:37;7.50;;;4.83;;
4738;SDS011;2383;48.632;10.156;2024-02-14T09:49:43;7.13;;;4.07;;
4738;SDS011;2383;48.632;10.156;2024-02-14T09:53:45;7.13;;;4.30;;
4738;SDS011;2383;48.632;10.156;2024-02-14T09:57:49;8.10;;;3.63;;
4738;SDS011;2383;48.632;10.156;2024-02-14T10:01:51;10.97;;;4.30;;
4738;SDS011;2383;48.632;10.156;2024-02-14T10:05:54;8.47;;;3.50;;
4738;SDS011;2383;48.632;10.156;2024-02-14T10:10:05;7.43;;;3.80;;
4738;SDS011;2383;48.632;10.156;2024-02-14T10:14:08;5.83;;;3.77;;
4738;SDS011;2383;48.632;10.156;2024-02-14T10:18:14;6.53;;;3.40;;
4738;SDS011;2383;48.632;10.156;2024-02-14T10:22:18;8.10;;;3.50;;
4738;SDS011;2383;48.632;10.156;2024-02-14T10:26:20;6.67;;;3.43;;
4738;SDS011;2383;48.632;10.156;2024-02-14T10:30:22;8.77;;;3.77;;
4738;SDS011;2383;48.632;10.156;2024-02-14T10:34:25;9.43;;;3.40;;
4738;SDS011;2383;48.632;10.156;2024-02-14T10:38:31;6.67;;;3.40;;
4738;SDS011;2383;48.632;10.156;2024-02-14T10:42:36;7.73;;;3.40;;
4738;SDS011;2383;48.632;10.156;2024-02-14T10:46:38;6.63;;;3.40;;
4738;SDS011;2383;48.632;10.156;2024-02-14T10:50:42;6.77;;;3.67;;
4738;SDS011;2383;48.632;10.156;2024-02-14T10:54:48;9.37;;;4.20;;
4738;SDS011;2383;48.632;10.156;2024-02-14T10:58:58;12.77;;;6.03;;
4738;SDS011;2383;48.632;10.156;2024-02-14T11:03:01;6.18;;;3.70;;
4738;SDS011;2383;48.632;10.156;2024-02-14T11:07:08;9.97;;;4.37;;
4738;SDS011;2383;48.632;10.156;2024-02-14T11:11:12;5.93;;;2.50;;
4738;SDS011;2383;48.632;10.156;2024-02-14T11:15:17;6.20;;;2.40;;
4738;SDS011;2383;48.632;10.156;2024-02-14T11:19:29;4.03;;;2.30;;
4738;SDS011;2383;48.632;10.156;2024-02-14T11:23:36;5.20;;;2.70;;
4738;SDS011;2383;48.632;10.156;2024-02-14T11:27:43;6.18;;;3.15;;
4738;SDS011;2383;48.632;10.156;2024-02-14T11:31:47;6.03;;;3.23;;
4738;SDS011;2383;48.632;10.156;2024-02-14T11:35:50;7.10;;;3.20;;
4738;SDS011;2383;48.632;10.156;2024-02-14T11:39:54;4.45;;;2.00;;
4738;SDS011;2383;48.632;10.156;2024-02-14T11:44:03;4.30;;;1.52;;
4738;SDS011;2383;48.632;10.156;2024-02-14T11:48:06;1.92;;;1.50;;
4738;SDS011;2383;48.632;10.156;2024-02-14T11:52:12;3.33;;;1.60;;
4738;SDS011;2383;48.632;10.156;2024-02-14T11:56:15;1.35;;;0.90;;
4738;SDS011;2383;48.632;10.156;2024-02-14T12:00:17;1.73;;;0.80;;
4738;SDS011;2383;48.632;10.156;2024-02-14T12:04:20;0.82;;;0.80;;
4738;SDS011;2383;48.632;10.156;2024-02-14T12:08:22;0.98;;;0.90;;
4738;SDS011;2383;48.632;10.156;2024-02-14T12:12:25;2.50;;;1.05;;
4738;SDS011;2383;48.632;10.156;2024-02-14T12:16:27;0.90;;;0.90;;
4738;SDS011;2383;48.632;10.156;2024-02-14T12:20:30;2.28;;;1.90;;
4738;SDS011;2383;48.632;10.156;2024-02-14T12:24:32;3.88;;;1.80;;
4738;SDS011;2383;48.632;10.156;2024-02-14T12:28:35;0.80;;;0.80;;
4738;SDS011;2383;48.632;10.156;2024-02-14T12:32:38;3.80;;;2.40;;
4738;SDS011;2383;48.632;10.156;2024-02-14T12:36:40;3.38;;;1.30;;
4738;SDS011;2383;48.632;10.156;2024-02-14T12:40:42;2.17;;;1.30;;
4738;SDS011;2383;48.632;10.156;2024-02-14T12:44:45;2.83;;;0.70;;
4738;SDS011;2383;48.632;10.156;2024-02-14T12:48:47;1.70;;;1.20;;
4738;SDS011;2383;48.632;10.156;2024-02-14T12:52:50;1.10;;;0.90;;
4738;SDS011;2383;48.632;10.156;2024-02-14T12:56:52;1.42;;;1.30;;
4738;SDS011;2383;48.632;10.156;2024-02-14T13:00:54;1.45;;;1.10;;
4738;SDS011;2383;48.632;10.156;2024-02-14T13:04:56;3.08;;;1.48;;
4738;SDS011;2383;48.632;10.156;2024-02-14T13:08:58;2.33;;;1.40;;
4738;SDS011;2383;48.632;10.156;2024-02-14T13:13:01;2.47;;;1.33;;
4738;SDS011;2383;48.632;10.156;2024-02-14T13:17:03;4.53;;;1.70;;
4738;SDS011;2383;48.632;10.156;2024-02-14T13:21:06;3.38;;;2.13;;
4738;SDS011;2383;48.632;10.156;2024-02-14T13:25:09;2.40;;;1.65;;
4738;SDS011;2383;48.632;10.156;2024-02-14T13:29:11;3.40;;;1.95;;
4738;SDS011;2383;48.632;10.156;2024-02-14T13:33:13;1.75;;;1.27;;
4738;SDS011;2383;48.632;10.156;2024-02-14T13:37:16;2.13;;;1.40;;
4738;SDS011;2383;48.632;10.156;2024-02-14T13:41:18;3.13;;;1.33;;
4738;SDS011;2383;48.632;10.156;2024-02-14T13:45:20;1.47;;;1.20;;
4738;SDS011;2383;48.632;10.156;2024-02-14T13:49:23;2.25;;;1.48;;
4738;SDS011;2383;48.632;10.156;2024-02-14T13:53:26;1.33;;;1.07;;
4738;SDS011;2383;48.632;10.156;2024-02-14T13:57:28;1.52;;;0.98;;
4738;SDS011;2383;48.632;10.156;2024-02-14T14:01:31;2.25;;;1.17;;
4738;SDS011;2383;48.632;10.156;2024-02-14T14:05:33;1.30;;;1.00;;
4738;SDS011;2383;48.632;10.156;2024-02-14T14:09:36;1.40;;;1.05;;
4738;SDS011;2383;48.632;10.156;2024-02-14T14:13:38;2.65;;;1.20;;
4738;SDS011;2383;48.632;10.156;2024-02-14T14:17:41;2.33;;;1.20;;
4738;SDS011;2383;48.632;10.156;2024-02-14T14:21:43;1.23;;;1.08;;
4738;SDS011;2383;48.632;10.156;2024-02-14T14:25:45;1.85;;;1.10;;
4738;SDS011;2383;48.632;10.156;2024-02-14T14:29:48;2.35;;;1.35;;
4738;SDS011;2383;48.632;10.156;2024-02-14T14:33:50;1.40;;;1.10;;
4738;SDS011;2383;48.632;10.156;2024-02-14T14:37:53;2.65;;;1.08;;
4738;SDS011;2383;48.632;10.156;2024-02-14T14:41:55;3.50;;;1.02;;
4738;SDS011;2383;48.632;10.156;2024-02-14T14:45:59;5.97;;;1.80;;
4738;SDS011;2383;48.632;10.156;2024-02-14T14:50:02;4.05;;;2.35;;
4738;SDS011;2383;48.632;10.156;2024-02-14T14:54:05;3.67;;;2.95;;
4738;SDS011;2383;48.632;10.156;2024-02-14T14:58:12;1.55;;;1.45;;
4738;SDS011;2383;48.632;10.156;2024-02-14T15:02:15;5.80;;;3.53;;
4738;SDS011;2383;48.632;10.156;2024-02-14T15:06:17;7.35;;;5.13;;
4738;SDS011;2383;48.632;10.156;2024-02-14T15:10:19;4.88;;;3.92;;
4738;SDS011;2383;48.632;10.156;2024-02-14T15:14:23;9.05;;;6.32;;
4738;SDS011;2383;48.632;10.156;2024-02-14T15:18:25;9.60;;;5.35;;
4738;SDS011;2383;48.632;10.156;2024-02-14T15:22:28;11.35;;;6.55;;
4738;SDS011;2383;48.632;10.156;2024-02-14T15:26:31;5.30;;;3.63;;
4738;SDS011;2383;48.632;10.156;2024-02-14T15:30:51;1.88;;;1.70;;
4738;SDS011;2383;48.632;10.156;2024-02-14T15:35:12;2.42;;;1.85;;
4738;SDS011;2383;48.632;10.156;2024-02-14T15:39:14;3.55;;;2.30;;
4738;SDS011;2383;48.632;10.156;2024-02-14T15:43:16;4.10;;;3.10;;
4738;SDS011;2383;48.632;10.156;2024-02-14T15:47:19;7.28;;;3.63;;
4738;SDS011;2383;48.632;10.156;2024-02-14T15:51:21;9.25;;;5.35;;
4738;SDS011;2383;48.632;10.156;2024-02-14T15:55:25;6.78;;;5.53;;
4738;SDS011;2383;48.632;10.156;2024-02-14T15:59:27;7.22;;;4.93;;
4738;SDS011;2383;48.632;10.156;2024-02-14T16:03:29;5.07;;;3.20;;
4738;SDS011;2383;48.632;10.156;2024-02-14T16:07:31;5.03;;;4.15;;
4738;SDS011;2383;48.632;10.156;2024-02-14T16:11:33;4.25;;;3.30;;
4738;SDS011;2383;48.632;10.156;2024-02-14T16:15:36;4.15;;;2.53;;
4738;SDS011;2383;48.632;10.156;2024-02-14T16:19:39;8.05;;;6.53;;
4738;SDS011;2383;48.632;10.156;2024-02-14T16:23:41;7.20;;;4.07;;
4738;SDS011;2383;48.632;10.156;2024-02-14T16:27:43;6.65;;;4.32;;
4738;SDS011;2383;48.632;10.156;2024-02-14T16:31:47;5.85;;;3.72;;
4738;SDS011;2383;48.632;10.156;2024-02-14T16:35:50;8.77;;;6.55;;
4738;SDS011;2383;48.632;10.156;2024-02-14T16:39:52;11.43;;;6.72;;
4738;SDS011;2383;48.632;10.156;2024-02-14T16:43:57;5.63;;;4.37;;
4738;SDS011;2383;48.632;10.156;2024-02-14T16:47:59;6.63;;;4.37;;
4738;SDS011;2383;48.632;10.156;2024-02-14T16:52:02;8.53;;;4.43;;
4738;SDS011;2383;48.632;10.156;2024-02-14T16:56:05;7.22;;;4.45;;
4738;SDS011;2383;48.632;10.156;2024-02-14T17:00:09;9.80;;;4.22;;
4738;SDS011;2383;48.632;10.156;2024-02-14T17:04:11;6.80;;;4.45;;
4738;SDS011;2383;48.632;10.156;2024-02-14T17:08:14;15.10;;;7.35;;
4738;SDS011;2383;48.632;10.156;2024-02-14T17:12:16;21.87;;;11.07;;
4738;SDS011;2383;48.632;10.156;2024-02-14T17:16:18;18.92;;;10.25;;
4738;SDS011;2383;48.632;10.156;2024-02-14T17:20:21;16.08;;;9.27;;
4738;SDS011;2383;48.632;10.156;2024-02-14T17:24:23;14.05;;;8.27;;
4738;SDS011;2383;48.632;10.156;2024-02-14T17:28:25;9.82;;;6.47;;
4738;SDS011;2383;48.632;10.156;2024-02-14T17:32:27;13.48;;;9.88;;
4738;SDS011;2383;48.632;10.156;2024-02-14T17:36:40;15.97;;;10.40;;
4738;SDS011;2383;48.632;10.156;2024-02-14T17:40:42;14.45;;;9.88;;
4738;SDS011;2383;48.632;10.156;2024-02-14T17:44:45;16.77;;;9.80;;
4738;SDS011;2383;48.632;10.156;2024-02-14T17:48:48;16.20;;;9.27;;
4738;SDS011;2383;48.632;10.156;2024-02-14T17:52:51;13.68;;;7.60;;
4738;SDS011;2383;48.632;10.156;2024-02-14T17:56:53;13.50;;;7.20;;
4738;SDS011;2383;48.632;10.156;2024-02-14T18:00:55;16.23;;;10.00;;
4738;SDS011;2383;48.632;10.156;2024-02-14T18:04:57;18.30;;;11.60;;
4738;SDS011;2383;48.632;10.156;2024-02-14T18:09:00;17.15;;;9.57;;
4738;SDS011;2383;48.632;10.156;2024-02-14T18:13:03;9.27;;;5.20;;
4738;SDS011;2383;48.632;10.156;2024-02-14T18:17:05;8.35;;;5.55;;
4738;SDS011;2383;48.632;10.156;2024-02-14T18:21:07;10.10;;;6.90;;
4738;SDS011;2383;48.632;10.156;2024-02-14T18:25:10;14.17;;;8.50;;
4738;SDS011;2383;48.632;10.156;2024-02-14T18:29:13;7.60;;;6.10;;
4738;SDS011;2383;48.632;10.156;2024-02-14T18:33:15;10.88;;;5.75;;
4738;SDS011;2383;48.632;10.156;2024-02-14T18:37:18;10.47;;;6.30;;
4738;SDS011;2383;48.632;10.156;2024-02-14T18:41:20;8.67;;;5.93;;
4738;SDS011;2383;48.632;10.156;2024-02-14T18:45:23;9.03;;;6.00;;
4738;SDS011;2383;48.632;10.156;2024-02-14T18:49:25;14.43;;;8.52;;
4738;SDS011;2383;48.632;10.156;2024-02-14T18:53:28;12.10;;;7.60;;
4738;SDS011;2383;48.632;10.156;2024-02-14T18:57:30;10.83;;;7.40;;
4738;SDS011;2383;48.632;10.156;2024-02-14T19:01:33;11.77;;;7.15;;
4738;SDS011;2383;48.632;10.156;2024-02-14T19:05:35;13.17;;;7.50;;
4738;SDS011;2383;48.632;10.156;2024-02-14T19:09:37;12.50;;;7.47;;
4738;SDS011;2383;48.632;10.156;2024-02-14T19:13:39;10.43;;;6.22;;
4738;SDS011;2383;48.632;10.156;2024-02-14T19:17:42;7.72;;;5.40;;
4738;SDS011;2383;48.632;10.156;2024-02-14T19:21:44;11.03;;;5.70;;
4738;SDS011;2383;48.632;10.156;2024-02-14T19:25:47;11.05;;;5.95;;
4738;SDS011;2383;48.632;10.156;2024-02-14T19:29:54;10.23;;;6.20;;
4738;SDS011;2383;48.632;10.156;2024-02-14T19:33:57;8.27;;;5.37;;
4738;SDS011;2383;48.632;10.156;2024-02-14T19:37:59;10.27;;;5.45;;
4738;SDS011;2383;48.632;10.156;2024-02-14T19:42:02;5.40;;;4.33;;
4738;SDS011;2383;48.632;10.156;2024-02-14T19:46:05;10.50;;;4.78;;
4738;SDS011;2383;48.632;10.156;2024-02-14T19:50:08;9.73;;;4.97;;
4738;SDS011;2383;48.632;10.156;2024-02-14T19:54:12;8.43;;;5.30;;
4738;SDS011;2383;48.632;10.156;2024-02-14T19:58:17;10.00;;;5.93;;
4738;SDS011;2383;48.632;10.156;2024-02-14T20:02:20;8.95;;;4.93;;
4738;SDS011;2383;48.632;10.156;2024-02-14T20:06:22;7.80;;;4.70;;
4738;SDS011;2383;48.632;10.156;2024-02-14T20:10:24;7.83;;;5.73;;
4738;SDS011;2383;48.632;10.156;2024-02-14T20:14:27;8.47;;;5.30;;
4738;SDS011;2383;48.632;10.156;2024-02-14T20:18:29;10.53;;;5.50;;
4738;SDS011;2383;48.632;10.156;2024-02-14T20:22:32;8.68;;;5.43;;
4738;SDS011;2383;48.632;10.156;2024-02-14T20:26:35;9.30;;;5.57;;
4738;SDS011;2383;48.632;10.156;2024-02-14T20:30:39;7.30;;;5.10;;
4738;SDS011;2383;48.632;10.156;2024-02-14T20:34:42;7.55;;;5.45;;
4738;SDS011;2383;48.632;10.156;2024-02-14T20:38:46;9.52;;;5.75;;
4738;SDS011;2383;48.632;10.156;2024-02-14T20:42:48;7.50;;;5.40;;
4738;SDS011;2383;48.632;10.156;2024-02-14T20:46:50;10.20;;;7.27;;
4738;SDS011;2383;48.632;10.156;2024-02-14T20:50:54;10.05;;;7.10;;
4738;SDS011;2383;48.632;10.156;2024-02-14T20:54:56;10.23;;;6.07;;
4738;SDS011;2383;48.632;10.156;2024-02-14T20:58:59;7.17;;;5.20;;
4738;SDS011;2383;48.632;10.156;2024-02-14T21:03:15;9.93;;;6.03;;
4738;SDS011;2383;48.632;10.156;2024-02-14T21:07:19;9.43;;;5.30;;
4738;SDS011;2383;48.632;10.156;2024-02-14T21:11:21;10.20;;;6.18;;
4738;SDS011;2383;48.632;10.156;2024-02-14T21:15:23;9.93;;;6.20;;
4738;SDS011;2383;48.632;10.156;2024-02-14T21:19:27;89.53;;;45.70;;
4738;SDS011;2383;48.632;10.156;2024-02-14T21:23:30;41.77;;;23.17;;
4738;SDS011;2383;48.632;10.156;2024-02-14T21:27:32;19.00;;;11.83;;
4738;SDS011;2383;48.632;10.156;2024-02-14T21:31:36;10.07;;;6.82;;
4738;SDS011;2383;48.632;10.156;2024-02-14T21:35:38;14.27;;;8.60;;
4738;SDS011;2383;48.632;10.156;2024-02-14T21:39:41;11.20;;;5.83;;
4738;SDS011;2383;48.632;10.156;2024-02-14T21:43:43;8.50;;;5.17;;
4738;SDS011;2383;48.632;10.156;2024-02-14T21:47:45;6.20;;;4.87;;
4738;SDS011;2383;48.632;10.156;2024-02-14T21:51:47;6.72;;;4.38;;
4738;SDS011;2383;48.632;10.156;2024-02-14T21:55:51;9.27;;;4.97;;
4738;SDS011;2383;48.632;10.156;2024-02-14T21:59:54;5.77;;;4.60;;
4738;SDS011;2383;48.632;10.156;2024-02-14T22:03:56;6.57;;;4.80;;
4738;SDS011;2383;48.632;10.156;2024-02-14T22:07:58;7.20;;;5.00;;
4738;SDS011;2383;48.632;10.156;2024-02-14T22:12:02;7.97;;;4.83;;
4738;SDS011;2383;48.632;10.156;2024-02-14T22:16:05;9.73;;;6.17;;
4738;SDS011;2383;48.632;10.156;2024-02-14T22:20:07;13.07;;;6.77;;
4738;SDS011;2383;48.632;10.156;2024-02-14T22:24:10;10.67;;;6.33;;
4738;SDS011;2383;48.632;10.156;2024-02-14T22:28:14;10.33;;;6.60;;
4738;SDS011;2383;48.632;10.156;2024-02-14T22:32:16;10.20;;;6.73;;
4738;SDS011;2383;48.632;10.156;2024-02-14T22:36:18;13.80;;;8.57;;
4738;SDS011;2383;48.632;10.156;2024-02-14T22:40:21;13.63;;;9.63;;
4738;SDS011;2383;48.632;10.156;2024-02-14T22:44:23;15.00;;;10.10;;
4738;SDS011;2383;48.632;10.156;2024-02-14T22:48:25;17.43;;;9.70;;
4738;SDS011;2383;48.632;10.156;2024-02-14T22:52:27;13.77;;;8.83;;
4738;SDS011;2383;48.632;10.156;2024-02-14T22:56:30;10.47;;;7.60;;
4738;SDS011;2383;48.632;10.156;2024-02-14T23:00:33;12.50;;;7.90;;
4738;SDS011;2383;48.632;10.156;2024-02-14T23:04:35;10.67;;;8.20;;
4738;SDS011;2383;48.632;10.156;2024-02-14T23:08:39;10.27;;;8.30;;
4738;SDS011;2383;48.632;10.156;2024-02-14T23:12:45;10.10;;;7.80;;
4738;SDS011;2383;48.632;10.156;2024-02-14T23:16:48;13.10;;;8.00;;
4738;SDS011;2383;48.632;10.156;2024-02-14T23:20:51;11.73;;;8.23;;
4738;SDS011;2383;48.632;10.156;2024-02-14T23:24:53;10.40;;;7.37;;
4738;SDS011;2383;48.632;10.156;2024-02-14T23:28:56;12.60;;;9.13;;
4738;SDS011;2383;48.632;10.156;2024-02-14T23:32:59;12.03;;;8.23;;
4738;SDS011;2383;48.632;10.156;2024-02-14T23:37:01;13.33;;;8.10;;
4738;SDS011;2383;48.632;10.156;2024-02-14T23:41:04;10.10;;;7.30;;
4738;SDS011;2383;48.632;10.156;2024-02-14T23:45:06;13.30;;;8.23;;
4738;SDS011;2383;48.632;10.156;2024-02-14T23:49:11;12.63;;;7.20;;
4738;SDS011;2383;48.632;10.156;2024-02-14T23:53:14;10.30;;;6.87;;
4738;SDS011;2383;48.632;10.156;2024-02-14T23:57:17;9.13;;;5.50;;
